createdAt,value
2022-10-20T00:01:15.034Z,7.12
2022-10-20T00:03:43.189Z,8.48
2022-10-20T00:06:13.298Z,10.73
2022-10-20T00:08:41.535Z,6.87
2022-10-20T00:11:10.671Z,5.90
2022-10-20T00:13:38.861Z,10.30
2022-10-20T00:16:06.794Z,8.13
2022-10-20T00:18:34.498Z,6.57
2022-10-20T00:21:05.985Z,5.97
2022-10-20T00:23:33.661Z,6.32
2022-10-20T00:26:06.161Z,8.05
2022-10-20T00:28:34.069Z,6.35
2022-10-20T00:31:03.973Z,7.60
2022-10-20T00:33:31.316Z,7.55
2022-10-20T00:36:03.251Z,8.00
2022-10-20T00:38:31.153Z,8.07
2022-10-20T00:41:03.349Z,7.75
2022-10-20T00:43:54.427Z,7.20
2022-10-20T00:46:38.381Z,6.50
2022-10-20T00:49:19.255Z,9.50
2022-10-20T00:51:47.076Z,8.70
2022-10-20T00:54:18.336Z,10.20
2022-10-20T00:56:47.248Z,9.50
2022-10-20T00:59:17.601Z,8.05
2022-10-20T01:01:45.810Z,6.70
2022-10-20T01:04:13.271Z,7.30
2022-10-20T01:06:40.933Z,10.48
2022-10-20T01:09:08.648Z,7.30
2022-10-20T01:11:58.962Z,7.22
2022-10-20T01:14:48.481Z,7.70
2022-10-20T01:17:15.691Z,8.00
2022-10-20T01:20:13.073Z,8.77
2022-10-20T01:22:59.174Z,8.45
2022-10-20T01:25:40.464Z,6.32
2022-10-20T01:28:23.794Z,6.72
2022-10-20T01:30:57.274Z,8.75
2022-10-20T01:33:50.371Z,10.40
2022-10-20T01:36:32.942Z,8.65
2022-10-20T01:39:05.151Z,9.07
2022-10-20T01:42:00.657Z,7.18
2022-10-20T01:44:28.902Z,8.32
2022-10-20T01:46:57.248Z,7.70
2022-10-20T01:49:24.976Z,7.47
2022-10-20T01:51:53.121Z,9.93
2022-10-20T01:54:22.902Z,6.03
2022-10-20T01:57:15.299Z,8.90
2022-10-20T01:59:47.754Z,7.85
2022-10-20T02:02:46.296Z,6.60
2022-10-20T02:05:44.376Z,6.90
2022-10-20T02:08:17.169Z,9.27
2022-10-20T02:10:50.101Z,6.20
2022-10-20T02:13:19.426Z,6.82
2022-10-20T02:15:51.073Z,5.65
2022-10-20T02:18:22.574Z,7.68
2022-10-20T02:20:51.881Z,7.15
2022-10-20T02:23:19.258Z,8.60
2022-10-20T02:25:51.627Z,5.72
2022-10-20T02:28:20.077Z,8.57
2022-10-20T02:30:47.742Z,6.62
2022-10-20T02:33:16.965Z,9.95
2022-10-20T02:35:53.904Z,6.50
2022-10-20T02:38:21.738Z,7.72
2022-10-20T02:40:49.342Z,6.37
2022-10-20T02:43:16.677Z,6.85
2022-10-20T02:45:43.977Z,9.93
2022-10-20T02:48:11.603Z,8.45
2022-10-20T02:50:38.959Z,5.70
2022-10-20T02:53:06.445Z,6.90
2022-10-20T02:55:34.024Z,9.02
2022-10-20T02:58:01.424Z,9.57
2022-10-20T03:00:31.098Z,8.65
2022-10-20T03:02:58.696Z,6.85
2022-10-20T03:05:27.064Z,7.93
2022-10-20T03:07:54.413Z,8.40
2022-10-20T03:10:22.163Z,8.52
2022-10-20T03:12:49.715Z,5.47
2022-10-20T03:15:17.641Z,8.95
2022-10-20T03:17:45.375Z,10.55
2022-10-20T03:20:12.799Z,8.43
2022-10-20T03:22:40.333Z,7.47
2022-10-20T03:25:08.410Z,10.18
2022-10-20T03:27:36.309Z,7.85
2022-10-20T03:30:04.316Z,6.07
2022-10-20T03:32:32.254Z,9.10
2022-10-20T03:34:59.755Z,8.00
2022-10-20T03:37:28.789Z,7.45
2022-10-20T03:39:57.766Z,6.80
2022-10-20T03:42:25.214Z,7.00
2022-10-20T03:44:52.698Z,8.63
2022-10-20T03:47:20.441Z,7.55
2022-10-20T03:49:47.813Z,10.43
2022-10-20T03:52:15.283Z,9.52
2022-10-20T03:54:42.885Z,7.25
2022-10-20T03:57:10.207Z,5.62
2022-10-20T03:59:37.614Z,6.93
2022-10-20T04:02:05.310Z,14.82
2022-10-20T04:04:32.994Z,6.60
2022-10-20T04:07:00.304Z,11.40
2022-10-20T04:09:27.642Z,5.55
2022-10-20T04:11:55.290Z,8.95
2022-10-20T04:14:22.687Z,11.90
2022-10-20T04:16:50.128Z,8.38
2022-10-20T04:19:17.723Z,6.55
2022-10-20T04:21:45.065Z,9.73
2022-10-20T04:24:12.369Z,10.57
2022-10-20T04:26:40.053Z,12.90
2022-10-20T04:29:07.455Z,6.55
2022-10-20T04:31:34.809Z,9.63
2022-10-20T04:34:02.468Z,8.85
2022-10-20T04:36:29.785Z,10.10
2022-10-20T04:38:57.112Z,10.13
2022-10-20T04:41:24.667Z,7.62
2022-10-20T04:43:52.551Z,9.57
2022-10-20T04:46:20.040Z,11.15
2022-10-20T04:48:47.637Z,8.82
2022-10-20T04:51:15.824Z,10.45
2022-10-20T04:53:43.225Z,6.65
2022-10-20T04:56:13.942Z,8.07
2022-10-20T04:58:41.308Z,6.50
2022-10-20T05:01:10.350Z,7.53
2022-10-20T05:03:37.950Z,7.62
2022-10-20T05:06:12.929Z,9.23
2022-10-20T05:08:41.855Z,7.97
2022-10-20T05:11:09.520Z,8.23
2022-10-20T05:13:37.347Z,8.95
2022-10-20T05:16:06.224Z,10.35
2022-10-20T05:18:34.319Z,12.73
2022-10-20T05:21:13.473Z,14.30
2022-10-20T05:23:41.834Z,12.27
2022-10-20T05:26:15.315Z,15.18
2022-10-20T05:28:44.913Z,15.18
2022-10-20T05:31:12.579Z,38.15
2022-10-20T05:33:48.293Z,28.65
2022-10-20T05:36:19.461Z,27.35
2022-10-20T05:38:50.858Z,27.23
2022-10-20T05:41:21.445Z,21.87
2022-10-20T05:44:00.190Z,22.13
2022-10-20T05:46:31.432Z,22.37
2022-10-20T05:49:00.522Z,19.02
2022-10-20T05:51:32.027Z,15.02
2022-10-20T05:53:59.731Z,20.48
2022-10-20T05:56:29.189Z,12.55
2022-10-20T05:58:57.621Z,15.13
2022-10-20T06:01:39.440Z,16.58
2022-10-20T06:04:10.656Z,14.13
2022-10-20T06:06:38.014Z,16.80
2022-10-20T06:09:07.700Z,16.70
2022-10-20T06:11:39.292Z,16.02
2022-10-20T06:14:08.129Z,11.70
2022-10-20T06:16:36.305Z,14.52
2022-10-20T06:19:03.984Z,13.18
2022-10-20T06:21:32.903Z,11.02
2022-10-20T06:24:01.917Z,9.30
2022-10-20T06:26:30.045Z,9.10
2022-10-20T06:29:03.557Z,11.38
2022-10-20T06:31:40.410Z,8.52
2022-10-20T06:34:09.827Z,8.60
2022-10-20T06:36:38.274Z,7.12
2022-10-20T06:39:07.318Z,6.70
2022-10-20T06:41:35.284Z,9.57
2022-10-20T06:44:03.554Z,9.90
2022-10-20T06:46:33.431Z,10.02
2022-10-20T06:49:01.752Z,13.60
2022-10-20T06:51:29.479Z,7.32
2022-10-20T06:53:56.915Z,7.70
2022-10-20T06:56:27.071Z,11.73
2022-10-20T06:58:56.034Z,11.52
2022-10-20T07:01:37.072Z,10.30
2022-10-20T07:04:07.313Z,11.82
2022-10-20T07:06:37.079Z,12.93
2022-10-20T07:09:08.438Z,14.18
2022-10-20T07:11:36.246Z,10.65
2022-10-20T07:14:04.299Z,12.65
2022-10-20T07:16:33.821Z,9.95
2022-10-20T07:19:02.028Z,9.80
2022-10-20T07:21:34.659Z,9.00
2022-10-20T07:26:34.496Z,10.00
2022-10-20T07:29:03.776Z,9.05
2022-10-20T07:31:33.729Z,10.68
2022-10-20T07:34:13.054Z,9.77
2022-10-20T07:36:49.336Z,8.10
2022-10-20T07:39:16.734Z,9.13
2022-10-20T07:41:47.201Z,8.18
2022-10-20T07:44:15.101Z,6.65
2022-10-20T07:46:42.411Z,8.38
2022-10-20T07:51:57.418Z,9.38
2022-10-20T07:54:24.788Z,9.05
2022-10-20T07:56:52.137Z,9.27
2022-10-20T07:59:19.820Z,8.57
2022-10-20T08:01:47.288Z,6.95
2022-10-20T08:04:15.025Z,7.72
2022-10-20T08:06:42.368Z,7.65
2022-10-20T08:09:09.747Z,6.97
2022-10-20T08:11:37.408Z,7.60
2022-10-20T08:14:04.750Z,8.35
2022-10-20T08:19:26.280Z,7.30
2022-10-20T08:21:53.640Z,8.90
2022-10-20T08:24:21.403Z,5.25
2022-10-20T08:26:48.772Z,8.10
2022-10-20T08:29:16.102Z,6.87
2022-10-20T08:31:44.215Z,5.93
2022-10-20T08:34:11.702Z,7.95
2022-10-20T08:36:39.069Z,7.75
2022-10-20T08:39:06.761Z,6.78
2022-10-20T08:42:07.532Z,6.97
2022-10-20T08:44:34.596Z,9.00
2022-10-20T08:47:03.653Z,7.97
2022-10-20T08:49:33.281Z,6.45
2022-10-20T08:52:01.377Z,7.20
2022-10-20T08:54:29.031Z,6.45
2022-10-20T08:56:56.785Z,6.93
2022-10-20T08:59:29.114Z,8.25
2022-10-20T09:01:57.674Z,6.20
2022-10-20T09:04:29.912Z,6.25
2022-10-20T09:07:00.476Z,7.20
2022-10-20T09:09:30.494Z,5.97
2022-10-20T09:12:04.764Z,10.45
2022-10-20T09:14:35.461Z,4.90
2022-10-20T09:17:06.021Z,3.58
2022-10-20T09:19:36.032Z,2.90
2022-10-20T09:22:07.247Z,4.97
2022-10-20T09:24:35.630Z,5.70
2022-10-20T09:27:20.087Z,4.87
2022-10-20T09:29:47.743Z,3.25
2022-10-20T09:32:51.183Z,6.65
2022-10-20T09:35:20.863Z,8.02
2022-10-20T09:37:54.517Z,3.12
2022-10-20T09:40:22.747Z,4.87
2022-10-20T09:43:03.185Z,4.00
2022-10-20T09:45:32.193Z,4.15
2022-10-20T09:48:03.964Z,9.65
2022-10-20T09:50:37.451Z,3.60
2022-10-20T09:53:07.670Z,3.35
2022-10-20T09:55:36.889Z,5.37
2022-10-20T09:58:05.148Z,7.80
2022-10-20T10:00:45.388Z,4.55
2022-10-20T10:03:21.539Z,6.18
2022-10-20T10:05:53.255Z,4.75
2022-10-20T10:08:23.470Z,6.05
2022-10-20T10:11:00.045Z,6.25
2022-10-20T10:13:29.943Z,4.55
2022-10-20T10:16:11.824Z,7.90
2022-10-20T10:18:39.477Z,5.40
2022-10-20T10:21:09.493Z,4.90
2022-10-20T10:23:50.438Z,5.28
2022-10-20T10:26:52.071Z,5.65
2022-10-20T10:29:31.519Z,5.62
2022-10-20T10:32:03.674Z,5.18
2022-10-20T10:34:45.362Z,5.00
2022-10-20T10:37:15.066Z,4.43
2022-10-20T10:39:42.800Z,5.90
2022-10-20T10:42:31.957Z,7.85
2022-10-20T10:45:29.752Z,6.57
2022-10-20T10:48:14.840Z,6.00
2022-10-20T10:50:52.933Z,6.00
2022-10-20T10:53:32.104Z,4.25
2022-10-20T10:56:21.371Z,4.12
2022-10-20T10:58:58.824Z,4.72
2022-10-20T11:01:40.601Z,7.55
2022-10-20T11:04:33.294Z,5.53
2022-10-20T11:07:23.434Z,3.87
2022-10-20T11:09:56.718Z,5.43
2022-10-20T11:12:42.895Z,5.57
2022-10-20T11:15:28.971Z,3.95
2022-10-20T11:18:34.429Z,4.22
2022-10-20T11:21:20.331Z,6.20
2022-10-20T11:24:15.283Z,5.07
2022-10-20T11:26:47.748Z,5.72
2022-10-20T11:29:37.891Z,4.50
2022-10-20T11:32:12.337Z,5.93
2022-10-20T11:35:07.763Z,5.60
2022-10-20T11:37:45.490Z,5.25
2022-10-20T11:40:29.909Z,5.15
2022-10-20T11:43:13.354Z,4.20
2022-10-20T11:45:54.611Z,4.45
2022-10-20T11:48:29.133Z,6.32
2022-10-20T11:51:08.984Z,5.30
2022-10-20T11:53:45.965Z,5.93
2022-10-20T11:56:38.545Z,5.12
2022-10-20T11:59:48.143Z,4.70
2022-10-20T12:02:40.426Z,5.00
2022-10-20T12:05:47.827Z,7.43
2022-10-20T12:09:03.195Z,9.15
2022-10-20T12:11:39.513Z,3.75
2022-10-20T12:14:15.647Z,4.45
2022-10-20T12:16:52.040Z,5.28
2022-10-20T12:19:35.344Z,7.20
2022-10-20T12:22:39.179Z,6.75
2022-10-20T12:25:06.536Z,5.15
2022-10-20T12:27:34.799Z,14.45
2022-10-20T12:30:50.546Z,8.10
2022-10-20T12:33:19.927Z,4.50
2022-10-20T12:36:29.951Z,6.50
2022-10-20T12:39:12.620Z,5.47
2022-10-20T12:41:45.860Z,7.72
2022-10-20T12:44:17.963Z,5.65
2022-10-20T12:46:55.549Z,4.32
2022-10-20T12:49:35.418Z,4.72
2022-10-20T12:52:03.392Z,6.75
2022-10-20T12:54:35.268Z,4.57
2022-10-20T12:57:06.542Z,3.72
2022-10-20T12:59:38.153Z,4.85
2022-10-20T13:02:08.434Z,8.57
2022-10-20T13:05:01.484Z,4.32
2022-10-20T13:07:46.957Z,5.00
2022-10-20T13:10:26.845Z,5.50
2022-10-20T13:12:58.521Z,4.80
2022-10-20T13:15:26.522Z,5.18
2022-10-20T13:17:58.639Z,5.57
2022-10-20T13:20:37.639Z,3.75
2022-10-20T13:23:05.123Z,3.58
2022-10-20T13:25:36.356Z,4.35
2022-10-20T13:28:07.883Z,5.72
2022-10-20T13:30:36.288Z,4.60
2022-10-20T13:36:08.496Z,3.42
2022-10-20T13:38:35.696Z,6.72
2022-10-20T13:41:33.375Z,3.30
2022-10-20T13:44:19.616Z,4.53
2022-10-20T13:47:08.268Z,7.80
2022-10-20T13:50:06.228Z,5.53
2022-10-20T13:52:37.398Z,3.75
2022-10-20T13:55:06.841Z,5.25
2022-10-20T13:57:35.664Z,5.57
2022-10-20T14:00:16.936Z,6.15
2022-10-20T14:02:57.363Z,2.97
2022-10-20T14:05:25.531Z,6.50
2022-10-20T14:07:54.996Z,7.68
2022-10-20T14:10:22.296Z,4.53
2022-10-20T14:12:49.689Z,5.43
2022-10-20T14:15:23.287Z,3.05
2022-10-20T14:18:02.977Z,3.55
2022-10-20T14:20:32.855Z,5.07
2022-10-20T14:23:02.387Z,6.32
2022-10-20T14:25:31.463Z,5.25
2022-10-20T14:27:59.850Z,6.95
2022-10-20T14:30:28.321Z,3.00
2022-10-20T14:32:55.719Z,7.75
2022-10-20T14:35:29.693Z,3.70
2022-10-20T14:38:17.875Z,3.65
2022-10-20T14:40:54.306Z,3.92
2022-10-20T14:43:27.094Z,5.72
2022-10-20T14:45:56.859Z,3.75
2022-10-20T14:48:25.490Z,6.15
2022-10-20T14:50:54.129Z,5.03
2022-10-20T14:53:32.139Z,6.03
2022-10-20T14:56:02.603Z,4.50
2022-10-20T14:58:33.175Z,5.68
2022-10-20T15:01:28.058Z,12.85
2022-10-20T15:04:10.810Z,6.65
2022-10-20T15:06:38.270Z,4.57
2022-10-20T15:09:07.097Z,3.87
2022-10-20T15:11:34.510Z,6.75
2022-10-20T15:14:01.872Z,6.15
2022-10-20T15:16:45.108Z,7.85
2022-10-20T15:19:31.636Z,7.85
2022-10-20T15:22:08.680Z,6.03
2022-10-20T15:24:36.654Z,12.77
2022-10-20T15:27:05.061Z,5.93
2022-10-20T15:29:33.334Z,7.10
2022-10-20T15:32:00.878Z,5.82
2022-10-20T15:34:28.524Z,8.23
2022-10-20T15:36:55.904Z,9.50
2022-10-20T15:39:23.275Z,9.80
2022-10-20T15:41:53.759Z,8.65
2022-10-20T15:44:22.402Z,7.53
2022-10-20T15:46:53.434Z,6.25
2022-10-20T15:49:21.528Z,7.93
2022-10-20T15:51:50.576Z,9.82
2022-10-20T15:54:20.224Z,9.85
2022-10-20T15:56:48.349Z,7.55
2022-10-20T15:59:15.876Z,11.12
2022-10-20T16:01:43.436Z,11.63
2022-10-20T16:04:23.809Z,9.38
2022-10-20T16:06:57.660Z,16.50
2022-10-20T16:09:28.107Z,21.62
2022-10-20T16:11:55.470Z,20.80
2022-10-20T16:14:22.845Z,42.03
2022-10-20T16:16:50.582Z,40.92
2022-10-20T16:19:18.129Z,144.27
2022-10-20T16:21:45.661Z,139.12
2022-10-20T16:24:15.128Z,124.28
2022-10-20T16:26:42.543Z,118.80
2022-10-20T16:29:09.870Z,108.55
2022-10-20T16:31:37.780Z,149.15
2022-10-20T16:34:05.419Z,122.07
2022-10-20T16:36:32.822Z,104.18
2022-10-20T16:39:00.953Z,78.85
2022-10-20T16:41:28.290Z,126.28
2022-10-20T16:44:00.128Z,81.22
2022-10-20T16:46:29.003Z,65.70
2022-10-20T16:48:57.330Z,50.03
2022-10-20T16:51:24.846Z,42.03
2022-10-20T16:53:55.709Z,46.83
2022-10-20T16:56:25.725Z,43.70
2022-10-20T16:58:53.321Z,38.30
2022-10-20T17:01:21.968Z,36.80
2022-10-20T17:03:51.672Z,40.83
2022-10-20T17:06:21.813Z,40.92
2022-10-20T17:08:49.402Z,46.47
2022-10-20T17:11:19.318Z,40.55
2022-10-20T17:13:47.139Z,39.63
2022-10-20T17:16:17.419Z,47.20
2022-10-20T17:18:45.153Z,40.38
2022-10-20T17:21:14.707Z,42.20
2022-10-20T17:23:44.231Z,43.60
2022-10-20T17:26:20.553Z,48.87
2022-10-20T17:28:49.465Z,51.97
2022-10-20T17:31:18.490Z,52.58
2022-10-20T17:33:46.616Z,51.83
2022-10-20T17:36:15.131Z,47.42
2022-10-20T17:38:43.553Z,42.97
2022-10-20T17:41:13.359Z,44.50
2022-10-20T17:43:41.819Z,36.75
2022-10-20T17:46:12.890Z,52.53
2022-10-20T17:48:41.482Z,49.78
2022-10-20T17:51:13.395Z,48.95
2022-10-20T17:53:45.350Z,39.92
2022-10-20T17:56:28.112Z,32.63
2022-10-20T17:58:57.367Z,28.20
2022-10-20T18:01:33.908Z,24.63
2022-10-20T18:04:03.321Z,25.50
2022-10-20T18:06:34.587Z,34.20
2022-10-20T18:09:07.760Z,25.42
2022-10-20T18:11:36.058Z,54.47
2022-10-20T18:14:04.624Z,56.10
2022-10-20T18:16:34.008Z,52.80
2022-10-20T18:19:01.857Z,57.25
2022-10-20T18:21:31.683Z,61.92
2022-10-20T18:24:04.923Z,70.18
2022-10-20T18:26:35.559Z,64.68
2022-10-20T18:29:05.508Z,65.82
2022-10-20T18:31:37.894Z,66.72
2022-10-20T18:34:07.567Z,64.85
2022-10-20T18:36:39.111Z,65.03
2022-10-20T18:39:28.547Z,67.93
2022-10-20T18:41:56.648Z,60.92
2022-10-20T18:44:24.928Z,55.15
2022-10-20T18:46:57.832Z,45.05
2022-10-20T18:49:26.494Z,35.58
2022-10-20T18:51:54.326Z,31.73
2022-10-20T18:54:24.559Z,30.80
2022-10-20T18:56:52.983Z,36.20
2022-10-20T18:59:24.948Z,24.77
2022-10-20T19:01:53.073Z,21.70
2022-10-20T19:04:21.692Z,20.80
2022-10-20T19:06:49.629Z,25.30
2022-10-20T19:09:21.504Z,23.90
2022-10-20T19:14:18.521Z,21.17
2022-10-20T19:16:50.186Z,29.40
2022-10-20T19:19:27.398Z,34.78
2022-10-20T19:21:55.432Z,30.50
2022-10-20T19:24:24.573Z,30.33
2022-10-20T19:29:46.794Z,36.42
2022-10-20T19:32:17.616Z,53.17
2022-10-20T19:34:45.782Z,63.90
2022-10-20T19:37:13.485Z,66.78
2022-10-20T19:39:42.325Z,59.03
2022-10-20T19:42:11.365Z,67.75
2022-10-20T19:44:40.168Z,71.37
2022-10-20T19:47:08.512Z,64.30
2022-10-20T19:49:36.251Z,60.08
2022-10-20T19:52:05.414Z,62.47
2022-10-20T19:54:33.496Z,52.50
2022-10-20T19:57:01.489Z,29.63
2022-10-20T19:59:29.633Z,23.33
2022-10-20T20:01:57.511Z,21.40
2022-10-20T20:04:25.661Z,23.73
2022-10-20T20:06:54.725Z,27.33
2022-10-20T20:09:23.978Z,25.75
2022-10-20T20:11:52.080Z,24.60
2022-10-20T20:14:20.349Z,30.58
2022-10-20T20:16:49.413Z,31.37
2022-10-20T20:19:18.141Z,43.20
2022-10-20T20:21:46.252Z,51.55
2022-10-20T20:24:14.722Z,41.75
2022-10-20T20:26:44.561Z,47.08
2022-10-20T20:29:12.270Z,45.92
2022-10-20T20:31:40.649Z,54.13
2022-10-20T20:34:08.729Z,43.25
2022-10-20T20:36:36.130Z,41.75
2022-10-20T20:39:03.499Z,40.22
2022-10-20T20:41:31.945Z,43.53
2022-10-20T20:44:02.927Z,37.15
2022-10-20T20:46:34.017Z,32.38
2022-10-20T20:49:01.379Z,28.05
2022-10-20T20:51:33.271Z,17.27
2022-10-20T20:54:01.610Z,15.45
2022-10-20T20:56:29.041Z,13.50
2022-10-20T20:58:56.425Z,12.32
2022-10-20T21:01:29.040Z,14.02
2022-10-20T21:04:01.385Z,12.50
2022-10-20T21:06:37.990Z,14.05
2022-10-20T21:09:17.016Z,12.35
2022-10-20T21:11:44.647Z,13.27
2022-10-20T21:14:11.955Z,14.02
2022-10-20T21:16:39.266Z,12.60
2022-10-20T21:19:09.565Z,16.52
2022-10-20T21:21:39.097Z,18.83
2022-10-20T21:24:06.932Z,16.10
2022-10-20T21:26:34.248Z,21.55
2022-10-20T21:29:01.592Z,21.05
2022-10-20T21:31:30.362Z,23.42
2022-10-20T21:34:06.754Z,19.40
2022-10-20T21:36:35.489Z,19.62
2022-10-20T21:39:05.341Z,21.77
2022-10-20T21:41:34.870Z,16.95
2022-10-20T21:44:04.157Z,16.98
2022-10-20T21:46:33.266Z,14.45
2022-10-20T21:49:05.019Z,18.00
2022-10-20T21:51:37.613Z,17.80
2022-10-20T21:54:11.796Z,21.05
2022-10-20T21:56:57.784Z,16.50
2022-10-20T21:59:26.048Z,16.95
2022-10-20T22:01:55.352Z,17.00
2022-10-20T22:04:25.383Z,17.48
2022-10-20T22:06:53.390Z,19.67
2022-10-20T22:09:21.311Z,16.52
2022-10-20T22:11:55.238Z,17.35
2022-10-20T22:14:23.447Z,16.58
2022-10-20T22:16:51.648Z,15.23
2022-10-20T22:19:21.756Z,15.70
2022-10-20T22:21:50.874Z,17.42
2022-10-20T22:24:20.554Z,15.18
2022-10-20T22:26:48.770Z,17.95
2022-10-20T22:29:17.620Z,17.73
2022-10-20T22:31:45.235Z,15.98
2022-10-20T22:34:12.935Z,19.95
2022-10-20T22:36:40.872Z,17.52
2022-10-20T22:39:08.934Z,17.55
2022-10-20T22:41:36.594Z,17.00
2022-10-20T22:44:04.325Z,19.00
2022-10-20T22:46:31.974Z,17.92
2022-10-20T22:51:31.928Z,18.80
2022-10-20T22:53:59.315Z,20.10
2022-10-20T22:56:26.780Z,19.15
2022-10-20T22:58:54.524Z,22.50
2022-10-20T23:01:23.540Z,21.80
2022-10-20T23:03:51.104Z,19.23
2022-10-20T23:06:24.291Z,21.33
2022-10-20T23:08:53.765Z,19.67
2022-10-20T23:11:22.208Z,24.45
2022-10-20T23:13:51.043Z,22.02
2022-10-20T23:16:18.899Z,25.33
2022-10-20T23:18:47.187Z,23.08
2022-10-20T23:21:14.661Z,22.25
2022-10-20T23:23:42.202Z,24.10
2022-10-20T23:26:10.121Z,26.35
2022-10-20T23:28:38.115Z,24.65
2022-10-20T23:31:14.211Z,25.37
2022-10-20T23:33:43.423Z,26.27
2022-10-20T23:36:12.182Z,21.87
2022-10-20T23:38:39.540Z,24.52
2022-10-20T23:41:09.053Z,26.30
2022-10-20T23:43:39.284Z,20.33
2022-10-20T23:46:07.611Z,19.92
2022-10-20T23:48:39.162Z,18.62
2022-10-20T23:51:08.307Z,25.75
2022-10-20T23:53:35.772Z,18.87
2022-10-20T23:56:03.428Z,20.05
2022-10-20T23:58:31.144Z,23.80
